Kent, Texas
Current Conditions -  °F | °C
As of 12:51 PM on Monday 20 Oct 2014 (Local Time) from KGDP Reporting Station
Haze Haze  
Wind Chill: 56°   Ceiling: 400
Heat Index: 56°   Visibility: 4mi
Dew Point: 56°   Wind: 24mph
Humidity: 100%   Direction: 70°ENE
Pressure: 30.17"   Gusts: NA
Location:  31.0833°N, 104.815°W
Report Text: KGDP 201751Z AUTO 07021KT 4SM BR BKN004 BKN008 OVC014 13/13 A3017 RMK AO2 SLP167 60000 T01330133 10139 20122 58006
Loading
Personal Weather Stations






























Interactive Weather Map
Tropical Storm Tracking
New forecast layout! Learn more

10-Day Weather Forecast

Advertisements
Track Severe Weather on mobile